Main page
METAR-TAF:

METAR-TAF

Airports :

Campbeltown Airport

Campbeltown, Scotland

latitude: 55-26-14N, longitude: 005-41-11W, elevation: 13 m

Current weather observation

The report was made 27 minutes ago, at 13:20 UTC
Wind 7 kt from the East/Southeast
Temperature 6°C
Humidity 87%
Pressure 992 hPa
Visibility 10 km or more
Scattered clouds at a height of 2400 ft

METAR: EGEC 131320Z 11007KT 9999 SCT024 06/04 Q0992

Time: 13:47 (13:47 UTC)

Forecast

The report was made 2 hours and 49 minutes ago, at 10:58 UTC
Forecast valid from 13 at 12 UTC to 13 at 18 UTC
Wind 12 kt from the East
Visibility 10 km or more
Scattered clouds at a height of 2000 ft
Probability 30% :
Temporary
from 13 at 12 UTC to 13 at 18 UTC
Visibility: 7000 m
Broken clouds at a height of 1400 ft
rain showers

TAF: EGEC 131058Z 1312/1318 10012KT 9999 SCT020 PROB30 TEMPO 1312/1318 7000 SHRA BKN014

Weather observations and forecasts of more than 4000 airports (METAR and TAF reports).

The available stations are represented by yellow and red dots on the map.

Hover mouse over dot to see the name of the station.

Then click to see weather observations and forecasts.

To change the map : click on the green buttons with a black cross to zoom in, on the green button with a dash to zoom out, or on the green arrows for adjacent maps.


METAR-TAF: